Time;durP1;ratioP1;P1;durP2;ratioP2;P2;SDS_P1;SDS_P2;PMS_P1;PMS_P2;Temp;Humidity;BMP_temperature;BMP_pressure;BME280_temperature;BME280_humidity;BME280_pressure;Samples;Min_cycle;Max_cycle;Signal;HPM_P1;HPM_P2
2022/03/17 00:00:28;;;;;;;;;;;8.00;90.90;;;;;;5060537;28;19908;-78
2022/03/17 00:02:54;;;;;;;;;;;7.90;91.00;;;;;;5078954;28;19916;-78
2022/03/17 00:05:19;;;;;;;;;;;7.90;90.90;;;;;;5078915;28;20782;-78
2022/03/17 00:07:46;;;;;;;;;;;7.90;90.90;;;;;;5079051;28;19930;-78
2022/03/17 00:10:15;;;;;;;;;;;7.90;90.80;;;;;;5078719;28;19908;-78
2022/03/17 00:12:46;;;;;;;;;;;7.90;90.80;;;;;;5061223;28;19962;-78
2022/03/17 00:15:12;;;;;;;;;;;7.80;90.90;;;;;;5060395;28;19909;-77
2022/03/17 00:17:37;;;;;;;;;;;7.80;91.10;;;;;;5078699;28;19971;-77
2022/03/17 00:20:03;;;;;;;;;;;7.80;91.10;;;;;;5078578;28;19909;-77
2022/03/17 00:22:29;;;;;;;;;;;7.80;91.10;;;;;;5078579;28;19908;-77
2022/03/17 00:24:55;;;;;;;;;;;7.80;91.00;;;;;;5078457;28;19915;-77
2022/03/17 00:27:20;;;;;;;;;;;7.80;91.10;;;;;;5078874;28;20343;-77
2022/03/17 00:29:46;;;;;;;;;;;7.70;90.90;;;;;;5078201;28;19936;-78
2022/03/17 00:32:12;;;;;;;;;;;7.70;90.80;;;;;;5078530;28;19913;-77
2022/03/17 00:35:35;;;;;;;;;;;7.70;90.80;;;;;;5060637;28;19978;-78
2022/03/17 00:37:24;;;;;;;;;;;7.70;90.80;;;;;;5077490;28;19912;-78
2022/03/17 00:39:50;;;;;;;;;;;7.60;90.80;;;;;;5077765;28;19909;-78
2022/03/17 00:42:15;;;;;;;;;;;7.60;90.60;;;;;;5066164;28;19916;-78
2022/03/17 00:44:42;;;;;;;;;;;7.60;90.50;;;;;;5077085;28;19913;-78
2022/03/17 00:47:07;;;;;;;;;;;7.60;90.40;;;;;;5077927;28;19924;-78
2022/03/17 00:49:33;;;;;;;;;;;7.50;90.30;;;;;;5078049;28;20008;-78
2022/03/17 00:51:59;;;;;;;;;;;7.60;90.40;;;;;;5078224;28;20398;-78
2022/03/17 00:54:26;;;;;;;;;;;7.60;90.40;;;;;;5077890;28;19909;-78
2022/03/17 00:56:52;;;;;;;;;;;7.60;90.50;;;;;;5078230;28;20011;-78
2022/03/17 00:59:18;;;;;;;;;;;7.60;90.50;;;;;;5078097;28;20287;-78
2022/03/17 01:01:44;;;;;;;;;;;7.60;90.40;;;;;;5077796;28;19908;-78
2022/03/17 01:04:09;;;;;;;;;;;7.70;90.30;;;;;;5077797;28;19908;-78
2022/03/17 01:06:35;;;;;;;;;;;7.60;90.10;;;;;;5078123;28;19908;-78
2022/03/17 01:09:00;;;;;;;;;;;7.60;90.00;;;;;;5077807;28;19995;-78
2022/03/17 01:11:26;;;;;;;;;;;7.60;90.00;;;;;;5078053;28;19940;-78
2022/03/17 01:13:52;;;;;;;;;;;7.60;89.90;;;;;;5077479;28;19916;-78
2022/03/17 01:16:17;;;;;;;;;;;7.60;90.00;;;;;;5077698;28;19909;-78
2022/03/17 01:18:43;;;;;;;;;;;7.60;90.00;;;;;;5077761;28;19919;-78
2022/03/17 01:21:08;;;;;;;;;;;7.60;89.90;;;;;;5077993;28;19909;-78
2022/03/17 01:23:35;;;;;;;;;;;7.50;89.80;;;;;;5077741;28;19913;-78
2022/03/17 01:26:00;;;;;;;;;;;7.50;89.70;;;;;;5077614;28;20009;-78
2022/03/17 01:28:26;;;;;;;;;;;7.50;89.90;;;;;;5059965;28;20343;-78
2022/03/17 01:30:52;;;;;;;;;;;7.50;89.90;;;;;;5077513;28;19909;-78
2022/03/17 01:33:18;;;;;;;;;;;7.50;89.80;;;;;;5077489;28;20356;-78
2022/03/17 01:35:43;;;;;;;;;;;7.50;89.90;;;;;;5077814;28;19930;-78
2022/03/17 01:38:09;;;;;;;;;;;7.50;89.80;;;;;;5059848;28;19912;-78
2022/03/17 01:40:35;;;;;;;;;;;7.50;89.70;;;;;;5077026;28;19948;-78
2022/03/17 01:43:01;;;;;;;;;;;7.50;89.70;;;;;;5064097;28;20034;-78
2022/03/17 01:45:26;;;;;;;;;;;7.50;89.90;;;;;;5077352;28;19916;-78
2022/03/17 01:47:52;;;;;;;;;;;7.50;89.70;;;;;;5077244;28;20011;-78
2022/03/17 01:50:18;;;;;;;;;;;7.40;89.50;;;;;;5080353;28;19993;-78
2022/03/17 01:52:44;;;;;;;;;;;7.50;89.50;;;;;;5081590;28;19908;-78
2022/03/17 01:55:10;;;;;;;;;;;7.40;89.50;;;;;;5081513;28;20007;-78
2022/03/17 01:57:38;;;;;;;;;;;7.40;89.40;;;;;;5081270;28;19913;-78
2022/03/17 02:00:05;;;;;;;;;;;7.40;89.40;;;;;;5081219;28;19976;-78
2022/03/17 02:02:31;;;;;;;;;;;7.30;89.50;;;;;;5081515;28;20022;-78
2022/03/17 02:04:56;;;;;;;;;;;7.30;89.50;;;;;;5081316;28;19916;-78
2022/03/17 02:07:23;;;;;;;;;;;7.30;89.60;;;;;;5081279;28;19908;-78
2022/03/17 02:09:48;;;;;;;;;;;7.30;89.50;;;;;;5081432;28;19961;-78
2022/03/17 02:14:59;;;;;;;;;;;7.30;89.60;;;;;;5080908;28;19915;-78
2022/03/17 02:17:27;;;;;;;;;;;7.30;89.50;;;;;;5081041;28;19913;-78
2022/03/17 02:19:53;;;;;;;;;;;7.20;89.50;;;;;;5080802;28;20019;-78
2022/03/17 02:22:22;;;;;;;;;;;7.20;89.50;;;;;;5062947;28;19915;-78
2022/03/17 02:27:47;;;;;;;;;;;7.20;90.00;;;;;;5081104;28;19916;-78
2022/03/17 02:30:14;;;;;;;;;;;7.20;89.70;;;;;;5080589;28;20011;-78
2022/03/17 02:32:40;;;;;;;;;;;7.20;89.60;;;;;;5080602;28;19908;-78
2022/03/17 02:35:07;;;;;;;;;;;7.20;89.90;;;;;;5080731;28;19958;-78
2022/03/17 02:37:33;;;;;;;;;;;7.10;89.90;;;;;;5062400;28;19918;-78
2022/03/17 02:40:00;;;;;;;;;;;7.10;89.90;;;;;;5080579;28;20426;-78
2022/03/17 02:42:30;;;;;;;;;;;7.10;89.90;;;;;;5066888;28;19992;-78
2022/03/17 02:44:59;;;;;;;;;;;7.10;90.00;;;;;;5062375;28;19956;-78
2022/03/17 02:47:26;;;;;;;;;;;7.00;90.00;;;;;;5080289;28;19924;-78
2022/03/17 02:49:55;;;;;;;;;;;7.00;90.00;;;;;;5080613;28;19999;-78
2022/03/17 02:52:21;;;;;;;;;;;7.00;90.00;;;;;;5062282;28;19909;-78
2022/03/17 02:54:47;;;;;;;;;;;7.00;90.00;;;;;;5062758;28;19916;-78
2022/03/17 02:57:12;;;;;;;;;;;7.00;90.10;;;;;;5062373;28;19912;-78
2022/03/17 02:59:38;;;;;;;;;;;7.00;90.00;;;;;;5061867;28;19912;-78
2022/03/17 03:02:04;;;;;;;;;;;7.00;90.00;;;;;;5080325;28;19951;-78
2022/03/17 03:04:33;;;;;;;;;;;6.90;89.90;;;;;;5080088;28;19908;-78
2022/03/17 03:06:59;;;;;;;;;;;6.90;89.70;;;;;;5080166;28;20359;-78
2022/03/17 03:09:24;;;;;;;;;;;6.90;89.80;;;;;;5080086;28;19917;-78
2022/03/17 03:11:50;;;;;;;;;;;6.90;89.90;;;;;;5079982;28;19930;-78
2022/03/17 03:14:16;;;;;;;;;;;6.90;89.80;;;;;;5079958;28;19908;-78
2022/03/17 03:16:41;;;;;;;;;;;6.80;89.70;;;;;;5061550;28;19917;-78
2022/03/17 03:19:07;;;;;;;;;;;6.80;89.80;;;;;;5080183;28;20375;-78
2022/03/17 03:21:33;;;;;;;;;;;6.70;89.60;;;;;;5079894;28;19980;-78
2022/03/17 03:23:58;;;;;;;;;;;6.70;89.40;;;;;;5061661;28;20007;-79
2022/03/17 03:26:26;;;;;;;;;;;6.70;89.20;;;;;;5062102;28;20362;-78
2022/03/17 03:28:52;;;;;;;;;;;6.60;89.00;;;;;;5079816;28;19909;-78
2022/03/17 03:31:18;;;;;;;;;;;6.60;88.90;;;;;;5079334;28;19944;-78
2022/03/17 03:33:44;;;;;;;;;;;6.60;89.10;;;;;;5079501;28;20311;-78
2022/03/17 03:38:53;;;;;;;;;;;6.50;89.00;;;;;;5079403;28;20425;-78
2022/03/17 03:41:19;;;;;;;;;;;6.50;88.90;;;;;;5074105;28;19913;-78
2022/03/17 03:43:44;;;;;;;;;;;6.40;89.00;;;;;;5070462;28;20378;-78
2022/03/17 03:46:10;;;;;;;;;;;6.40;88.80;;;;;;5057583;28;20387;-78
2022/03/17 03:48:37;;;;;;;;;;;6.40;88.80;;;;;;5059626;28;19975;-78
2022/03/17 03:51:02;;;;;;;;;;;6.40;89.30;;;;;;5059291;28;19916;-77
2022/03/17 03:54:12;;;;;;;;;;;6.30;89.30;;;;;;5059305;28;19909;-78
2022/03/17 03:56:14;;;;;;;;;;;6.30;89.20;;;;;;5046603;28;19976;-77
2022/03/17 03:58:39;;;;;;;;;;;6.30;89.00;;;;;;5059063;28;19917;-78
2022/03/17 04:01:05;;;;;;;;;;;6.30;89.20;;;;;;5058988;28;19908;-77
2022/03/17 04:03:31;;;;;;;;;;;6.20;89.30;;;;;;5058937;28;19963;-78
2022/03/17 04:05:56;;;;;;;;;;;6.20;89.30;;;;;;5059167;28;19908;-78
2022/03/17 04:08:22;;;;;;;;;;;6.20;89.40;;;;;;5058825;28;19974;-77
2022/03/17 04:10:47;;;;;;;;;;;6.20;89.40;;;;;;5059325;28;19916;-77
2022/03/17 04:13:13;;;;;;;;;;;6.20;89.30;;;;;;5057907;28;19916;-77
2022/03/17 04:15:39;;;;;;;;;;;6.10;89.20;;;;;;5058799;28;19908;-77
2022/03/17 04:18:04;;;;;;;;;;;6.10;89.40;;;;;;5058641;28;19916;-77
2022/03/17 04:20:30;;;;;;;;;;;6.10;89.50;;;;;;5058846;28;19916;-77
2022/03/17 04:22:56;;;;;;;;;;;6.10;89.30;;;;;;5058557;28;19972;-77
2022/03/17 04:25:21;;;;;;;;;;;6.10;89.10;;;;;;5058734;28;20003;-77
2022/03/17 04:27:47;;;;;;;;;;;6.10;89.40;;;;;;5058437;28;19909;-77
2022/03/17 04:30:12;;;;;;;;;;;6.00;89.30;;;;;;5058541;28;20368;-77
2022/03/17 04:32:38;;;;;;;;;;;6.00;89.30;;;;;;5058439;28;20291;-77
2022/03/17 04:35:04;;;;;;;;;;;6.00;89.10;;;;;;5058661;28;20287;-78
2022/03/17 04:37:30;;;;;;;;;;;6.00;89.00;;;;;;5058160;28;19952;-78
2022/03/17 04:39:55;;;;;;;;;;;5.90;89.10;;;;;;5058361;28;19955;-78
2022/03/17 04:42:21;;;;;;;;;;;5.90;89.30;;;;;;5045357;28;20360;-78
2022/03/17 04:44:47;;;;;;;;;;;5.90;89.30;;;;;;5057717;28;19944;-78
2022/03/17 04:47:13;;;;;;;;;;;5.90;89.60;;;;;;5072320;28;20299;-78
2022/03/17 04:49:38;;;;;;;;;;;5.90;89.40;;;;;;5078433;28;20347;-77
2022/03/17 04:53:26;;;;;;;;;;;5.80;89.50;;;;;;5078362;28;19963;-78
2022/03/17 04:54:50;;;;;;;;;;;5.80;89.40;;;;;;5067104;28;19915;-78
2022/03/17 04:57:15;;;;;;;;;;;5.80;89.20;;;;;;5077963;28;19912;-78
2022/03/17 04:59:41;;;;;;;;;;;5.80;89.30;;;;;;5060092;28;19912;-78
2022/03/17 05:02:07;;;;;;;;;;;5.80;89.40;;;;;;5077867;28;19921;-78
2022/03/17 05:04:32;;;;;;;;;;;5.80;89.30;;;;;;5077981;28;20261;-78
2022/03/17 05:06:58;;;;;;;;;;;5.70;89.40;;;;;;5077847;28;19974;-78
2022/03/17 05:09:24;;;;;;;;;;;5.70;89.30;;;;;;5077882;28;19975;-78
2022/03/17 05:11:49;;;;;;;;;;;5.70;89.10;;;;;;5077814;28;20325;-78
2022/03/17 05:14:15;;;;;;;;;;;5.70;89.00;;;;;;5077649;28;19909;-78
2022/03/17 05:16:41;;;;;;;;;;;5.70;89.10;;;;;;5077406;28;19908;-78
2022/03/17 05:19:07;;;;;;;;;;;5.70;89.10;;;;;;5077859;28;19909;-78
2022/03/17 05:21:34;;;;;;;;;;;5.60;89.10;;;;;;5077739;28;19908;-78
2022/03/17 05:23:59;;;;;;;;;;;5.60;89.20;;;;;;5077605;28;19908;-78
2022/03/17 05:26:25;;;;;;;;;;;5.60;89.40;;;;;;5077775;28;19912;-78
2022/03/17 05:28:50;;;;;;;;;;;5.60;89.40;;;;;;5077771;28;20374;-78
2022/03/17 05:31:16;;;;;;;;;;;5.60;89.20;;;;;;5077353;28;19940;-78
2022/03/17 05:33:42;;;;;;;;;;;5.50;89.00;;;;;;5077562;28;19909;-77
2022/03/17 05:36:08;;;;;;;;;;;5.50;88.70;;;;;;5077599;28;20391;-77
2022/03/17 05:38:34;;;;;;;;;;;5.50;88.60;;;;;;5077544;28;20078;-74
2022/03/17 05:41:00;;;;;;;;;;;5.50;88.60;;;;;;5075256;28;19967;-74
2022/03/17 05:43:25;;;;;;;;;;;5.40;88.40;;;;;;5065958;28;19920;-79
2022/03/17 05:45:51;;;;;;;;;;;5.40;88.40;;;;;;5077063;28;20054;-80
2022/03/17 05:48:17;;;;;;;;;;;5.40;88.40;;;;;;5059586;28;19923;-80
2022/03/17 05:50:43;;;;;;;;;;;5.40;88.50;;;;;;5077486;28;19908;-74
2022/03/17 05:53:09;;;;;;;;;;;5.30;88.40;;;;;;5077546;28;19908;-76
2022/03/17 05:55:35;;;;;;;;;;;5.30;88.60;;;;;;5077330;28;19919;-83
2022/03/17 05:58:01;;;;;;;;;;;5.30;88.80;;;;;;5077399;28;19916;-77
2022/03/17 06:00:28;;;;;;;;;;;5.20;88.70;;;;;;5076907;28;19908;-78
2022/03/17 06:02:54;;;;;;;;;;;5.20;88.80;;;;;;5077584;28;19908;-84
2022/03/17 06:05:20;;;;;;;;;;;5.20;88.90;;;;;;5077338;28;19909;-86
2022/03/17 06:07:47;;;;;;;;;;;5.10;88.80;;;;;;5077443;28;19991;-88
2022/03/17 06:10:14;;;;;;;;;;;5.10;89.00;;;;;;5077423;28;19979;-77
2022/03/17 06:12:40;;;;;;;;;;;5.10;89.00;;;;;;5077253;28;19909;-78
2022/03/17 06:15:07;;;;;;;;;;;5.00;89.00;;;;;;5076872;28;19916;-79
2022/03/17 06:17:36;;;;;;;;;;;5.00;89.10;;;;;;5077374;28;19913;-79
2022/03/17 06:20:02;;;;;;;;;;;5.00;89.60;;;;;;5077297;28;19954;-81
2022/03/17 06:22:27;;;;;;;;;;;5.00;90.10;;;;;;5077171;28;19912;-81
2022/03/17 06:24:53;;;;;;;;;;;5.00;89.90;;;;;;5076911;28;19973;-77
2022/03/17 06:27:19;;;;;;;;;;;4.90;89.40;;;;;;5077245;28;19908;-76
2022/03/17 06:29:44;;;;;;;;;;;4.90;89.40;;;;;;5076767;28;20470;-77
2022/03/17 06:32:10;;;;;;;;;;;4.90;89.30;;;;;;5077078;28;19909;-77
2022/03/17 06:34:35;;;;;;;;;;;4.90;89.00;;;;;;5076927;28;19908;-76
2022/03/17 06:37:01;;;;;;;;;;;4.90;89.40;;;;;;5080576;28;19916;-76
2022/03/17 06:39:27;;;;;;;;;;;4.90;90.00;;;;;;5080333;28;19908;-76
2022/03/17 06:41:52;;;;;;;;;;;4.80;89.70;;;;;;5071930;28;19908;-77
2022/03/17 06:44:18;;;;;;;;;;;4.80;89.50;;;;;;5058506;28;19919;-79
2022/03/17 06:46:44;;;;;;;;;;;4.80;89.30;;;;;;5058994;28;19939;-81
2022/03/17 06:49:09;;;;;;;;;;;4.80;89.10;;;;;;5059299;28;19910;-80
2022/03/17 06:51:35;;;;;;;;;;;4.80;89.10;;;;;;5059394;28;20003;-81
2022/03/17 06:54:01;;;;;;;;;;;4.80;89.50;;;;;;5059114;28;19913;-79
2022/03/17 06:56:26;;;;;;;;;;;4.80;89.40;;;;;;5060628;28;19909;-79
2022/03/17 06:58:52;;;;;;;;;;;4.80;89.30;;;;;;5059925;28;19920;-79
2022/03/17 07:01:17;;;;;;;;;;;4.80;89.30;;;;;;5059979;28;19916;-79
2022/03/17 07:03:43;;;;;;;;;;;4.80;89.50;;;;;;5060012;28;19909;-79
2022/03/17 07:06:09;;;;;;;;;;;4.80;89.50;;;;;;5058988;28;19916;-79
2022/03/17 07:08:35;;;;;;;;;;;4.90;89.60;;;;;;5060011;28;19912;-79
2022/03/17 07:11:00;;;;;;;;;;;4.90;89.70;;;;;;5060137;28;19959;-79
2022/03/17 07:13:26;;;;;;;;;;;5.00;90.10;;;;;;5058436;28;19915;-79
2022/03/17 07:15:52;;;;;;;;;;;5.00;90.00;;;;;;5059802;28;19908;-79
2022/03/17 07:18:17;;;;;;;;;;;5.10;90.20;;;;;;5059775;28;19919;-79
2022/03/17 07:20:43;;;;;;;;;;;5.10;90.10;;;;;;5060268;28;19909;-79
2022/03/17 07:23:08;;;;;;;;;;;5.20;90.10;;;;;;5059762;28;19909;-79
2022/03/17 07:25:34;;;;;;;;;;;5.20;90.10;;;;;;5059814;28;19938;-79
2022/03/17 07:28:00;;;;;;;;;;;5.30;90.10;;;;;;5059647;28;19905;-79
2022/03/17 07:30:26;;;;;;;;;;;5.30;90.00;;;;;;5059643;28;19908;-79
2022/03/17 07:32:53;;;;;;;;;;;5.30;90.00;;;;;;5059509;28;19908;-79
2022/03/17 07:35:19;;;;;;;;;;;5.40;90.00;;;;;;5059831;28;19909;-79
2022/03/17 07:37:45;;;;;;;;;;;5.40;90.40;;;;;;5059384;28;19913;-79
2022/03/17 07:40:11;;;;;;;;;;;5.50;90.50;;;;;;5059477;28;20011;-79
2022/03/17 07:42:37;;;;;;;;;;;5.50;90.40;;;;;;5045775;28;19952;-79
2022/03/17 07:45:03;;;;;;;;;;;5.60;90.60;;;;;;5059391;28;19963;-79
2022/03/17 07:47:28;;;;;;;;;;;5.70;90.70;;;;;;5074338;28;19928;-79
2022/03/17 07:49:54;;;;;;;;;;;5.70;90.70;;;;;;5079514;28;19908;-79
2022/03/17 07:52:20;;;;;;;;;;;5.80;90.80;;;;;;5079168;28;19970;-79
2022/03/17 07:54:46;;;;;;;;;;;5.90;90.80;;;;;;5061269;28;19944;-79
2022/03/17 07:57:12;;;;;;;;;;;6.00;90.80;;;;;;5079020;28;19920;-79
2022/03/17 07:59:38;;;;;;;;;;;6.10;90.80;;;;;;5079039;28;20430;-79
2022/03/17 08:02:04;;;;;;;;;;;6.20;90.80;;;;;;5060977;28;19979;-79
2022/03/17 08:04:29;;;;;;;;;;;6.20;90.70;;;;;;5079117;28;20283;-79
2022/03/17 08:06:57;;;;;;;;;;;6.30;90.80;;;;;;5078862;28;19913;-79
2022/03/17 08:09:24;;;;;;;;;;;6.40;90.60;;;;;;5079066;28;20003;-79
2022/03/17 08:11:50;;;;;;;;;;;6.40;90.50;;;;;;5078720;28;19999;-79
2022/03/17 08:14:16;;;;;;;;;;;6.50;90.40;;;;;;5078739;28;19943;-79
2022/03/17 08:16:43;;;;;;;;;;;6.50;90.40;;;;;;5078530;28;19909;-79
2022/03/17 08:19:12;;;;;;;;;;;6.60;90.40;;;;;;5078994;28;19909;-79
2022/03/17 08:21:39;;;;;;;;;;;6.70;90.50;;;;;;5078671;28;19979;-80
2022/03/17 08:24:05;;;;;;;;;;;6.70;90.40;;;;;;5078631;28;19909;-80
2022/03/17 08:26:31;;;;;;;;;;;6.80;90.40;;;;;;5060569;28;19909;-80
2022/03/17 08:28:57;;;;;;;;;;;6.90;90.40;;;;;;5078773;28;19909;-79
2022/03/17 08:31:22;;;;;;;;;;;7.00;90.40;;;;;;5078169;28;19908;-79
2022/03/17 08:33:48;;;;;;;;;;;7.10;90.50;;;;;;5078433;28;20423;-79
2022/03/17 08:36:13;;;;;;;;;;;7.20;90.70;;;;;;5078347;28;19947;-79
2022/03/17 08:38:39;;;;;;;;;;;7.50;91.10;;;;;;5078592;28;19935;-80
2022/03/17 08:41:05;;;;;;;;;;;8.20;91.90;;;;;;5057193;28;19912;-80
2022/03/17 08:43:30;;;;;;;;;;;9.10;92.20;;;;;;5067624;28;19914;-80
2022/03/17 08:51:25;;;;;;;;;;;11.30;91.60;;;;;;5066371;28;19920;-80
2022/03/17 08:53:51;;;;;;;;;;;12.00;91.20;;;;;;5077974;28;19908;-80
2022/03/17 08:56:16;;;;;;;;;;;12.60;90.80;;;;;;5078378;28;19909;-80
2022/03/17 08:58:42;;;;;;;;;;;13.20;90.00;;;;;;5077666;28;19918;-80
2022/03/17 09:01:08;;;;;;;;;;;13.90;88.90;;;;;;5077854;28;19940;-80
2022/03/17 09:03:33;;;;;;;;;;;14.60;88.30;;;;;;5078067;28;19916;-80
2022/03/17 09:05:59;;;;;;;;;;;15.20;85.60;;;;;;5078129;28;19965;-81
2022/03/17 09:08:28;;;;;;;;;;;15.80;84.90;;;;;;5078009;28;19912;-81
2022/03/17 09:10:57;;;;;;;;;;;16.40;82.30;;;;;;5077842;28;19908;-81
2022/03/17 09:13:26;;;;;;;;;;;17.00;79.70;;;;;;5077691;28;19966;-81
2022/03/17 09:15:53;;;;;;;;;;;17.40;78.30;;;;;;5077580;28;19931;-81
2022/03/17 09:18:20;;;;;;;;;;;17.90;76.30;;;;;;5077633;28;20298;-81
2022/03/17 09:20:46;;;;;;;;;;;18.30;75.70;;;;;;5077816;28;19913;-81
2022/03/17 09:23:12;;;;;;;;;;;18.70;74.60;;;;;;5077636;28;19974;-81
2022/03/17 09:25:38;;;;;;;;;;;19.10;74.30;;;;;;5077686;28;20007;-81
2022/03/17 09:28:04;;;;;;;;;;;19.70;73.40;;;;;;5077641;28;19916;-80
2022/03/17 09:30:30;;;;;;;;;;;20.00;71.10;;;;;;5077391;28;19909;-80
2022/03/17 09:32:56;;;;;;;;;;;20.40;72.00;;;;;;5077479;28;19923;-80
2022/03/17 09:35:22;;;;;;;;;;;20.80;70.50;;;;;;5077661;28;20011;-80
2022/03/17 09:37:48;;;;;;;;;;;21.20;68.10;;;;;;5059331;28;19913;-80
2022/03/17 09:40:13;;;;;;;;;;;21.50;64.60;;;;;;5077374;28;19915;-80
2022/03/17 09:42:39;;;;;;;;;;;21.70;64.00;;;;;;5063844;28;19909;-80
2022/03/17 09:45:06;;;;;;;;;;;22.10;64.50;;;;;;5077387;28;19912;-80
2022/03/17 09:47:41;;;;;;;;;;;22.40;65.00;;;;;;5077432;28;20402;-80
2022/03/17 09:50:08;;;;;;;;;;;22.70;66.30;;;;;;5077720;28;20355;-80
2022/03/17 09:52:41;;;;;;;;;;;23.20;62.90;;;;;;5077251;28;20396;-80
2022/03/17 09:55:10;;;;;;;;;;;23.60;62.40;;;;;;5059741;28;19908;-80
2022/03/17 09:57:36;;;;;;;;;;;23.80;61.00;;;;;;5077337;28;19978;-80
2022/03/17 10:00:03;;;;;;;;;;;24.10;58.60;;;;;;5077231;28;19912;-80
2022/03/17 10:02:30;;;;;;;;;;;24.40;58.00;;;;;;5077166;28;19912;-80
2022/03/17 10:04:56;;;;;;;;;;;24.50;58.70;;;;;;5077284;28;19938;-80
2022/03/17 10:07:22;;;;;;;;;;;24.80;59.00;;;;;;5077294;28;19909;-79
2022/03/17 10:09:48;;;;;;;;;;;25.00;59.00;;;;;;5077455;28;19916;-79
2022/03/17 10:12:16;;;;;;;;;;;25.30;57.10;;;;;;5080947;28;19908;-79
2022/03/17 10:14:46;;;;;;;;;;;25.50;55.30;;;;;;5080915;28;19920;-79
2022/03/17 10:17:31;;;;;;;;;;;25.60;54.90;;;;;;5068077;28;19912;-79
2022/03/17 10:20:14;;;;;;;;;;;25.90;55.80;;;;;;5081030;28;20375;-79
2022/03/17 10:22:41;;;;;;;;;;;26.10;54.10;;;;;;5081043;28;19951;-79
2022/03/17 10:25:06;;;;;;;;;;;26.20;53.70;;;;;;5080817;28;19915;-79
2022/03/17 10:27:41;;;;;;;;;;;26.50;52.70;;;;;;5080960;28;19909;-79
2022/03/17 10:30:08;;;;;;;;;;;26.60;53.40;;;;;;5068074;28;19909;-79
2022/03/17 10:32:36;;;;;;;;;;;26.80;53.40;;;;;;5062669;28;20315;-79
2022/03/17 10:35:01;;;;;;;;;;;27.00;53.40;;;;;;5080907;28;19912;-79
2022/03/17 10:37:30;;;;;;;;;;;27.10;50.60;;;;;;5080503;28;20398;-79
2022/03/17 10:39:56;;;;;;;;;;;27.30;52.60;;;;;;5080389;28;19918;-79
2022/03/17 10:42:26;;;;;;;;;;;27.40;52.20;;;;;;5067490;28;19959;-79
2022/03/17 10:44:53;;;;;;;;;;;27.60;51.60;;;;;;5067514;28;20291;-79
2022/03/17 10:47:29;;;;;;;;;;;27.70;49.40;;;;;;5080325;28;19971;-79
2022/03/17 10:50:01;;;;;;;;;;;27.90;49.10;;;;;;5080651;28;20383;-79
2022/03/17 10:52:42;;;;;;;;;;;28.00;47.90;;;;;;5062355;28;19908;-79
2022/03/17 10:55:09;;;;;;;;;;;28.00;47.20;;;;;;5080407;28;20298;-79
2022/03/17 10:57:35;;;;;;;;;;;27.90;45.70;;;;;;5080270;28;19939;-79
2022/03/17 11:00:00;;;;;;;;;;;28.00;47.80;;;;;;5080064;28;19909;-79
2022/03/17 11:02:26;;;;;;;;;;;28.00;48.60;;;;;;5080106;28;19908;-79
2022/03/17 11:04:52;;;;;;;;;;;28.10;44.40;;;;;;5080179;28;19995;-79
2022/03/17 11:07:19;;;;;;;;;;;28.20;46.20;;;;;;5080099;28;19999;-79
2022/03/17 11:09:46;;;;;;;;;;;28.20;46.50;;;;;;5062031;28;19909;-79
2022/03/17 11:12:15;;;;;;;;;;;28.10;44.80;;;;;;5079771;28;19912;-79
2022/03/17 11:14:45;;;;;;;;;;;28.20;46.60;;;;;;5079738;28;19912;-79
2022/03/17 11:17:29;;;;;;;;;;;28.30;46.30;;;;;;5080329;28;19962;-79
2022/03/17 11:19:58;;;;;;;;;;;28.30;44.10;;;;;;5079816;28;19909;-79
2022/03/17 11:22:27;;;;;;;;;;;28.40;44.90;;;;;;5080002;28;19971;-79
2022/03/17 11:25:19;;;;;;;;;;;28.40;44.50;;;;;;5079638;28;19970;-79
2022/03/17 11:27:46;;;;;;;;;;;28.40;45.80;;;;;;5076531;28;19916;-79
2022/03/17 11:30:13;;;;;;;;;;;28.50;46.80;;;;;;5079702;28;19947;-79
2022/03/17 11:32:48;;;;;;;;;;;28.60;46.90;;;;;;5079482;28;19991;-79
2022/03/17 11:35:18;;;;;;;;;;;28.70;46.90;;;;;;5061711;28;19934;-79
2022/03/17 11:37:43;;;;;;;;;;;28.80;47.10;;;;;;5076598;28;19920;-78
2022/03/17 11:40:14;;;;;;;;;;;28.90;47.40;;;;;;5079618;28;19916;-79
2022/03/17 11:43:03;;;;;;;;;;;29.00;46.50;;;;;;5065963;28;19909;-79
2022/03/17 11:45:34;;;;;;;;;;;29.10;46.70;;;;;;5079311;28;19908;-79
2022/03/17 11:48:01;;;;;;;;;;;29.10;45.40;;;;;;5079243;28;19959;-79
2022/03/17 11:50:28;;;;;;;;;;;29.00;43.10;;;;;;5079384;28;19935;-79
2022/03/17 11:53:05;;;;;;;;;;;28.90;43.10;;;;;;5066387;28;19923;-79
2022/03/17 11:55:42;;;;;;;;;;;28.90;43.90;;;;;;5079105;28;19967;-79
2022/03/17 11:58:29;;;;;;;;;;;28.80;44.40;;;;;;5079330;28;20426;-79
2022/03/17 12:01:11;;;;;;;;;;;28.80;45.70;;;;;;5078768;28;19915;-79
2022/03/17 12:03:44;;;;;;;;;;;28.80;43.80;;;;;;5078907;28;19908;-79
2022/03/17 12:06:13;;;;;;;;;;;28.70;42.80;;;;;;5079127;28;19991;-79
2022/03/17 12:08:41;;;;;;;;;;;28.50;39.90;;;;;;5061017;28;19908;-79
2022/03/17 12:11:17;;;;;;;;;;;28.40;43.70;;;;;;5061206;28;19908;-79
2022/03/17 12:14:02;;;;;;;;;;;28.30;41.70;;;;;;5078540;28;19908;-79
2022/03/17 12:16:40;;;;;;;;;;;28.20;43.00;;;;;;5078393;28;19908;-79
2022/03/17 12:19:05;;;;;;;;;;;28.10;42.90;;;;;;5079020;28;20584;-79
2022/03/17 12:21:49;;;;;;;;;;;28.10;43.30;;;;;;5078777;28;19915;-79
2022/03/17 12:24:32;;;;;;;;;;;28.00;43.30;;;;;;5078608;28;19920;-79
2022/03/17 12:27:11;;;;;;;;;;;27.90;43.90;;;;;;5048994;28;19909;-79
2022/03/17 12:29:37;;;;;;;;;;;28.00;44.40;;;;;;5060295;28;19908;-79
2022/03/17 12:32:23;;;;;;;;;;;27.90;43.10;;;;;;5078599;28;19908;-79
2022/03/17 12:34:49;;;;;;;;;;;27.70;41.10;;;;;;5077514;28;19908;-79
2022/03/17 12:37:16;;;;;;;;;;;27.60;41.00;;;;;;5078228;28;19920;-79
2022/03/17 12:39:41;;;;;;;;;;;27.50;42.40;;;;;;5078335;28;20286;-79
2022/03/17 12:42:27;;;;;;;;;;;27.30;43.20;;;;;;5067261;28;19909;-80
2022/03/17 12:45:06;;;;;;;;;;;27.00;40.30;;;;;;5065101;28;20436;-79
2022/03/17 12:47:33;;;;;;;;;;;27.00;41.60;;;;;;5078158;28;19932;-79
2022/03/17 12:50:00;;;;;;;;;;;26.80;41.90;;;;;;5078305;28;20011;-79
2022/03/17 12:52:27;;;;;;;;;;;26.70;42.30;;;;;;5078183;28;19959;-79
2022/03/17 12:54:54;;;;;;;;;;;26.60;40.80;;;;;;5078158;28;20397;-79
2022/03/17 12:57:20;;;;;;;;;;;26.40;39.50;;;;;;5078079;28;20440;-79
2022/03/17 12:59:46;;;;;;;;;;;26.30;41.10;;;;;;5077926;28;19952;-77
2022/03/17 13:02:16;;;;;;;;;;;26.10;40.70;;;;;;5077978;28;19916;-77
2022/03/17 13:04:42;;;;;;;;;;;26.00;41.10;;;;;;5078018;28;19916;-77
2022/03/17 13:07:09;;;;;;;;;;;25.90;41.90;;;;;;5077963;28;19909;-77
2022/03/17 13:09:34;;;;;;;;;;;25.80;41.10;;;;;;5059867;28;19909;-77
2022/03/17 13:14:46;;;;;;;;;;;25.50;40.80;;;;;;5071514;28;19930;-77
2022/03/17 13:17:12;;;;;;;;;;;25.50;42.40;;;;;;5078020;28;19917;-77
2022/03/17 13:19:49;;;;;;;;;;;25.30;41.80;;;;;;5077716;28;19915;-77
2022/03/17 13:22:21;;;;;;;;;;;25.20;42.80;;;;;;5078281;28;20007;-77
2022/03/17 13:24:58;;;;;;;;;;;25.00;41.70;;;;;;5077596;28;19955;-77
2022/03/17 13:27:27;;;;;;;;;;;24.70;42.30;;;;;;5077889;28;19912;-77
2022/03/17 13:29:53;;;;;;;;;;;24.10;40.50;;;;;;5077294;28;19940;-76
2022/03/17 13:32:21;;;;;;;;;;;23.70;42.90;;;;;;5077701;28;19915;-77
2022/03/17 13:34:56;;;;;;;;;;;23.40;43.60;;;;;;5059819;28;19912;-76
2022/03/17 13:37:31;;;;;;;;;;;23.00;43.40;;;;;;5059745;28;19919;-76
2022/03/17 13:40:00;;;;;;;;;;;22.60;43.40;;;;;;5059558;28;20279;-77
2022/03/17 13:42:25;;;;;;;;;;;22.20;45.20;;;;;;5064105;28;20295;-77
2022/03/17 13:44:54;;;;;;;;;;;21.80;46.00;;;;;;5077740;28;19909;-77
2022/03/17 13:47:24;;;;;;;;;;;21.50;45.70;;;;;;5060238;28;20281;-77
2022/03/17 13:50:06;;;;;;;;;;;21.20;44.80;;;;;;5062057;28;19915;-77
2022/03/17 13:52:31;;;;;;;;;;;20.90;46.30;;;;;;5060406;28;20359;-77
2022/03/17 13:54:57;;;;;;;;;;;20.70;46.00;;;;;;5061517;28;19932;-77
2022/03/17 13:57:23;;;;;;;;;;;20.40;46.70;;;;;;5061407;28;19920;-77
2022/03/17 13:59:48;;;;;;;;;;;20.20;46.40;;;;;;5059889;28;19979;-78
2022/03/17 14:02:14;;;;;;;;;;;20.00;45.00;;;;;;5060196;28;19908;-77
2022/03/17 14:04:56;;;;;;;;;;;19.80;47.30;;;;;;5061325;28;19931;-77
2022/03/17 14:07:22;;;;;;;;;;;19.50;43.80;;;;;;5061330;28;20375;-78
2022/03/17 14:09:48;;;;;;;;;;;19.30;45.50;;;;;;5061310;28;19969;-77
2022/03/17 14:12:13;;;;;;;;;;;19.10;46.50;;;;;;5060939;28;19909;-77
2022/03/17 14:14:39;;;;;;;;;;;19.00;47.80;;;;;;5061073;28;19909;-78
2022/03/17 14:17:05;;;;;;;;;;;18.90;48.10;;;;;;5061084;28;20288;-77
2022/03/17 14:19:30;;;;;;;;;;;18.80;46.80;;;;;;5061159;28;19908;-77
2022/03/17 14:24:41;;;;;;;;;;;18.50;47.60;;;;;;5061154;28;20278;-79
2022/03/17 14:27:07;;;;;;;;;;;18.40;48.20;;;;;;5061297;28;19908;-79
2022/03/17 14:29:33;;;;;;;;;;;18.20;48.60;;;;;;5060660;28;19944;-79
2022/03/17 14:32:01;;;;;;;;;;;18.20;48.00;;;;;;5060933;28;19909;-79
2022/03/17 14:34:27;;;;;;;;;;;18.10;49.10;;;;;;5060669;28;19913;-79
2022/03/17 14:36:53;;;;;;;;;;;18.00;49.40;;;;;;5060935;28;19915;-79
2022/03/17 14:39:19;;;;;;;;;;;17.90;48.90;;;;;;5059992;28;20003;-79
2022/03/17 14:41:44;;;;;;;;;;;17.80;48.50;;;;;;5053010;28;20372;-79
2022/03/17 14:44:10;;;;;;;;;;;17.70;49.30;;;;;;5055068;28;19913;-79